sensor_id;sensor_type;location;lat;lon;timestamp;P1;durP1;ratioP1;P2;durP2;ratioP2
13832;SDS011;6987;19.472;-99.276;2023-11-22T00:02:07;8.75;;;3.20;;
13832;SDS011;6987;19.472;-99.276;2023-11-22T00:04:37;11.25;;;3.28;;
13832;SDS011;6987;19.472;-99.276;2023-11-22T00:07:06;4.47;;;2.88;;
13832;SDS011;6987;19.472;-99.276;2023-11-22T00:09:35;11.52;;;3.90;;
13832;SDS011;6987;19.472;-99.276;2023-11-22T00:12:04;4.88;;;3.55;;
13832;SDS011;6987;19.472;-99.276;2023-11-22T00:14:36;7.75;;;3.17;;
13832;SDS011;6987;19.472;-99.276;2023-11-22T00:17:06;7.63;;;3.28;;
13832;SDS011;6987;19.472;-99.276;2023-11-22T00:19:36;10.18;;;3.58;;
13832;SDS011;6987;19.472;-99.276;2023-11-22T00:22:06;10.27;;;3.50;;
13832;SDS011;6987;19.472;-99.276;2023-11-22T00:24:38;7.70;;;2.92;;
13832;SDS011;6987;19.472;-99.276;2023-11-22T00:27:08;10.90;;;3.33;;
13832;SDS011;6987;19.472;-99.276;2023-11-22T00:29:42;7.43;;;3.70;;
13832;SDS011;6987;19.472;-99.276;2023-11-22T00:32:11;3.10;;;2.78;;
13832;SDS011;6987;19.472;-99.276;2023-11-22T00:34:41;5.38;;;3.60;;
13832;SDS011;6987;19.472;-99.276;2023-11-22T00:37:10;6.25;;;3.47;;
13832;SDS011;6987;19.472;-99.276;2023-11-22T00:39:39;7.13;;;3.85;;
13832;SDS011;6987;19.472;-99.276;2023-11-22T00:42:09;6.47;;;3.70;;
13832;SDS011;6987;19.472;-99.276;2023-11-22T00:44:38;7.35;;;4.15;;
13832;SDS011;6987;19.472;-99.276;2023-11-22T00:47:09;13.10;;;4.50;;
13832;SDS011;6987;19.472;-99.276;2023-11-22T00:49:38;5.25;;;4.00;;
13832;SDS011;6987;19.472;-99.276;2023-11-22T00:52:08;6.32;;;4.45;;
13832;SDS011;6987;19.472;-99.276;2023-11-22T00:54:37;5.32;;;3.88;;
13832;SDS011;6987;19.472;-99.276;2023-11-22T00:57:06;8.10;;;4.70;;
13832;SDS011;6987;19.472;-99.276;2023-11-22T00:59:36;15.00;;;4.72;;
13832;SDS011;6987;19.472;-99.276;2023-11-22T01:02:07;5.32;;;4.85;;
13832;SDS011;6987;19.472;-99.276;2023-11-22T01:04:36;6.15;;;4.93;;
13832;SDS011;6987;19.472;-99.276;2023-11-22T01:07:06;8.15;;;5.43;;
13832;SDS011;6987;19.472;-99.276;2023-11-22T01:09:35;6.35;;;5.72;;
13832;SDS011;6987;19.472;-99.276;2023-11-22T01:12:04;10.35;;;4.90;;
13832;SDS011;6987;19.472;-99.276;2023-11-22T01:14:34;10.63;;;4.97;;
13832;SDS011;6987;19.472;-99.276;2023-11-22T01:17:04;9.40;;;6.05;;
13832;SDS011;6987;19.472;-99.276;2023-11-22T01:19:35;7.38;;;6.15;;
13832;SDS011;6987;19.472;-99.276;2023-11-22T01:22:04;14.40;;;6.72;;
13832;SDS011;6987;19.472;-99.276;2023-11-22T01:24:34;10.93;;;7.30;;
13832;SDS011;6987;19.472;-99.276;2023-11-22T01:27:03;7.50;;;6.80;;
13832;SDS011;6987;19.472;-99.276;2023-11-22T01:29:33;8.88;;;7.93;;
13832;SDS011;6987;19.472;-99.276;2023-11-22T01:32:02;9.38;;;7.50;;
13832;SDS011;6987;19.472;-99.276;2023-11-22T01:34:33;10.02;;;6.85;;
13832;SDS011;6987;19.472;-99.276;2023-11-22T01:37:03;7.70;;;6.93;;
13832;SDS011;6987;19.472;-99.276;2023-11-22T01:39:32;7.65;;;6.93;;
13832;SDS011;6987;19.472;-99.276;2023-11-22T01:42:01;15.90;;;7.68;;
13832;SDS011;6987;19.472;-99.276;2023-11-22T01:44:32;13.30;;;6.85;;
13832;SDS011;6987;19.472;-99.276;2023-11-22T01:47:01;8.27;;;7.50;;
13832;SDS011;6987;19.472;-99.276;2023-11-22T01:49:34;11.38;;;8.27;;
13832;SDS011;6987;19.472;-99.276;2023-11-22T01:52:04;14.68;;;10.90;;
13832;SDS011;6987;19.472;-99.276;2023-11-22T01:54:33;15.35;;;13.52;;
13832;SDS011;6987;19.472;-99.276;2023-11-22T01:57:03;18.35;;;14.93;;
13832;SDS011;6987;19.472;-99.276;2023-11-22T01:59:34;18.15;;;15.95;;
13832;SDS011;6987;19.472;-99.276;2023-11-22T02:02:04;19.65;;;17.58;;
13832;SDS011;6987;19.472;-99.276;2023-11-22T02:04:35;26.35;;;18.45;;
13832;SDS011;6987;19.472;-99.276;2023-11-22T02:07:04;23.10;;;17.60;;
13832;SDS011;6987;19.472;-99.276;2023-11-22T02:09:33;23.17;;;18.58;;
13832;SDS011;6987;19.472;-99.276;2023-11-22T02:12:03;27.52;;;19.92;;
13832;SDS011;6987;19.472;-99.276;2023-11-22T02:14:32;22.58;;;18.90;;
13832;SDS011;6987;19.472;-99.276;2023-11-22T02:17:01;27.40;;;20.17;;
13832;SDS011;6987;19.472;-99.276;2023-11-22T02:19:31;34.13;;;21.77;;
13832;SDS011;6987;19.472;-99.276;2023-11-22T02:22:01;28.55;;;21.13;;
13832;SDS011;6987;19.472;-99.276;2023-11-22T02:24:33;24.95;;;20.83;;
13832;SDS011;6987;19.472;-99.276;2023-11-22T02:27:02;29.15;;;21.38;;
13832;SDS011;6987;19.472;-99.276;2023-11-22T02:29:32;25.45;;;19.33;;
13832;SDS011;6987;19.472;-99.276;2023-11-22T02:32:01;29.17;;;20.20;;
13832;SDS011;6987;19.472;-99.276;2023-11-22T02:34:31;28.75;;;19.63;;
13832;SDS011;6987;19.472;-99.276;2023-11-22T02:37:01;28.92;;;20.05;;
13832;SDS011;6987;19.472;-99.276;2023-11-22T02:39:35;23.00;;;19.80;;
13832;SDS011;6987;19.472;-99.276;2023-11-22T02:42:14;22.52;;;18.80;;
13832;SDS011;6987;19.472;-99.276;2023-11-22T02:44:44;27.90;;;19.98;;
13832;SDS011;6987;19.472;-99.276;2023-11-22T02:47:13;23.17;;;20.38;;
13832;SDS011;6987;19.472;-99.276;2023-11-22T02:49:42;23.45;;;19.60;;
13832;SDS011;6987;19.472;-99.276;2023-11-22T02:52:11;21.88;;;18.92;;
13832;SDS011;6987;19.472;-99.276;2023-11-22T02:54:44;25.35;;;19.02;;
13832;SDS011;6987;19.472;-99.276;2023-11-22T02:57:14;26.20;;;20.48;;
13832;SDS011;6987;19.472;-99.276;2023-11-22T02:59:43;31.35;;;20.05;;
13832;SDS011;6987;19.472;-99.276;2023-11-22T03:02:12;23.02;;;19.48;;
13832;SDS011;6987;19.472;-99.276;2023-11-22T03:04:42;25.55;;;20.13;;
13832;SDS011;6987;19.472;-99.276;2023-11-22T03:07:12;24.88;;;20.02;;
13832;SDS011;6987;19.472;-99.276;2023-11-22T03:09:44;22.55;;;19.40;;
13832;SDS011;6987;19.472;-99.276;2023-11-22T03:12:13;22.63;;;18.20;;
13832;SDS011;6987;19.472;-99.276;2023-11-22T03:14:45;24.23;;;18.10;;
13832;SDS011;6987;19.472;-99.276;2023-11-22T03:17:14;21.42;;;17.23;;
13832;SDS011;6987;19.472;-99.276;2023-11-22T03:19:44;21.08;;;16.77;;
13832;SDS011;6987;19.472;-99.276;2023-11-22T03:22:13;22.02;;;14.98;;
13832;SDS011;6987;19.472;-99.276;2023-11-22T03:24:44;23.38;;;15.05;;
13832;SDS011;6987;19.472;-99.276;2023-11-22T03:27:13;19.48;;;14.38;;
13832;SDS011;6987;19.472;-99.276;2023-11-22T03:29:43;22.27;;;14.45;;
13832;SDS011;6987;19.472;-99.276;2023-11-22T03:32:12;21.02;;;14.10;;
13832;SDS011;6987;19.472;-99.276;2023-11-22T03:34:41;19.77;;;14.13;;
13832;SDS011;6987;19.472;-99.276;2023-11-22T03:37:11;18.13;;;14.02;;
13832;SDS011;6987;19.472;-99.276;2023-11-22T03:39:40;20.88;;;14.15;;
13832;SDS011;6987;19.472;-99.276;2023-11-22T03:42:15;16.17;;;13.20;;
13832;SDS011;6987;19.472;-99.276;2023-11-22T03:44:45;14.80;;;13.23;;
13832;SDS011;6987;19.472;-99.276;2023-11-22T03:47:14;14.02;;;12.38;;
13832;SDS011;6987;19.472;-99.276;2023-11-22T03:49:44;17.08;;;13.00;;
13832;SDS011;6987;19.472;-99.276;2023-11-22T03:52:13;17.25;;;12.50;;
13832;SDS011;6987;19.472;-99.276;2023-11-22T03:54:42;16.38;;;13.90;;
13832;SDS011;6987;19.472;-99.276;2023-11-22T03:57:12;15.30;;;13.77;;
13832;SDS011;6987;19.472;-99.276;2023-11-22T03:59:43;16.85;;;14.65;;
13832;SDS011;6987;19.472;-99.276;2023-11-22T04:02:12;16.35;;;14.60;;
13832;SDS011;6987;19.472;-99.276;2023-11-22T04:04:41;19.45;;;16.70;;
13832;SDS011;6987;19.472;-99.276;2023-11-22T04:07:11;19.30;;;17.10;;
13832;SDS011;6987;19.472;-99.276;2023-11-22T04:09:40;19.45;;;17.15;;
13832;SDS011;6987;19.472;-99.276;2023-11-22T04:12:09;22.17;;;17.05;;
13832;SDS011;6987;19.472;-99.276;2023-11-22T04:14:40;20.40;;;18.38;;
13832;SDS011;6987;19.472;-99.276;2023-11-22T04:17:09;19.83;;;17.15;;
13832;SDS011;6987;19.472;-99.276;2023-11-22T04:19:39;19.65;;;17.50;;
13832;SDS011;6987;19.472;-99.276;2023-11-22T04:22:09;23.45;;;18.25;;
13832;SDS011;6987;19.472;-99.276;2023-11-22T04:24:38;17.13;;;14.85;;
13832;SDS011;6987;19.472;-99.276;2023-11-22T04:27:08;18.20;;;14.40;;
13832;SDS011;6987;19.472;-99.276;2023-11-22T04:29:37;19.38;;;14.23;;
13832;SDS011;6987;19.472;-99.276;2023-11-22T04:32:08;19.33;;;16.15;;
13832;SDS011;6987;19.472;-99.276;2023-11-22T04:34:37;21.48;;;16.13;;
13832;SDS011;6987;19.472;-99.276;2023-11-22T04:37:07;20.85;;;14.95;;
13832;SDS011;6987;19.472;-99.276;2023-11-22T04:39:36;19.98;;;15.52;;
13832;SDS011;6987;19.472;-99.276;2023-11-22T04:42:06;21.02;;;17.20;;
13832;SDS011;6987;19.472;-99.276;2023-11-22T04:44:35;22.92;;;17.35;;
13832;SDS011;6987;19.472;-99.276;2023-11-22T04:47:06;23.08;;;17.38;;
13832;SDS011;6987;19.472;-99.276;2023-11-22T04:49:36;31.25;;;19.98;;
13832;SDS011;6987;19.472;-99.276;2023-11-22T04:52:05;25.30;;;19.88;;
13832;SDS011;6987;19.472;-99.276;2023-11-22T04:54:34;25.67;;;20.40;;
13832;SDS011;6987;19.472;-99.276;2023-11-22T04:57:04;25.95;;;20.85;;
13832;SDS011;6987;19.472;-99.276;2023-11-22T04:59:33;26.60;;;21.98;;
13832;SDS011;6987;19.472;-99.276;2023-11-22T05:02:04;33.33;;;21.73;;
13832;SDS011;6987;19.472;-99.276;2023-11-22T05:04:35;34.35;;;24.20;;
13832;SDS011;6987;19.472;-99.276;2023-11-22T05:07:04;31.58;;;22.45;;
13832;SDS011;6987;19.472;-99.276;2023-11-22T05:09:34;32.10;;;24.58;;
13832;SDS011;6987;19.472;-99.276;2023-11-22T05:12:03;30.10;;;23.73;;
13832;SDS011;6987;19.472;-99.276;2023-11-22T05:14:33;27.85;;;23.70;;
13832;SDS011;6987;19.472;-99.276;2023-11-22T05:17:02;29.02;;;23.48;;
13832;SDS011;6987;19.472;-99.276;2023-11-22T05:19:34;27.50;;;22.77;;
13832;SDS011;6987;19.472;-99.276;2023-11-22T05:22:04;30.23;;;22.80;;
13832;SDS011;6987;19.472;-99.276;2023-11-22T05:24:33;31.33;;;23.10;;
13832;SDS011;6987;19.472;-99.276;2023-11-22T05:27:04;27.42;;;21.98;;
13832;SDS011;6987;19.472;-99.276;2023-11-22T05:29:33;31.38;;;22.25;;
13832;SDS011;6987;19.472;-99.276;2023-11-22T05:32:04;29.55;;;22.38;;
13832;SDS011;6987;19.472;-99.276;2023-11-22T05:34:36;29.58;;;22.65;;
13832;SDS011;6987;19.472;-99.276;2023-11-22T05:37:06;27.83;;;21.42;;
13832;SDS011;6987;19.472;-99.276;2023-11-22T05:39:35;28.67;;;21.67;;
13832;SDS011;6987;19.472;-99.276;2023-11-22T05:42:04;32.88;;;21.77;;
13832;SDS011;6987;19.472;-99.276;2023-11-22T05:44:34;24.95;;;19.98;;
13832;SDS011;6987;19.472;-99.276;2023-11-22T05:47:03;27.63;;;21.17;;
13832;SDS011;6987;19.472;-99.276;2023-11-22T05:49:33;26.58;;;20.92;;
13832;SDS011;6987;19.472;-99.276;2023-11-22T05:52:04;26.95;;;21.13;;
13832;SDS011;6987;19.472;-99.276;2023-11-22T05:54:34;23.10;;;18.98;;
13832;SDS011;6987;19.472;-99.276;2023-11-22T05:57:03;23.88;;;19.38;;
13832;SDS011;6987;19.472;-99.276;2023-11-22T05:59:33;24.77;;;19.92;;
13832;SDS011;6987;19.472;-99.276;2023-11-22T06:02:02;23.20;;;19.75;;
13832;SDS011;6987;19.472;-99.276;2023-11-22T06:04:31;28.23;;;19.80;;
13832;SDS011;6987;19.472;-99.276;2023-11-22T06:07:02;26.02;;;20.58;;
13832;SDS011;6987;19.472;-99.276;2023-11-22T06:09:32;23.67;;;20.35;;
13832;SDS011;6987;19.472;-99.276;2023-11-22T06:12:02;25.65;;;19.90;;
13832;SDS011;6987;19.472;-99.276;2023-11-22T06:14:32;22.92;;;20.48;;
13832;SDS011;6987;19.472;-99.276;2023-11-22T06:17:01;25.05;;;20.52;;
13832;SDS011;6987;19.472;-99.276;2023-11-22T06:19:30;23.85;;;20.88;;
13832;SDS011;6987;19.472;-99.276;2023-11-22T06:21:59;26.20;;;20.63;;
13832;SDS011;6987;19.472;-99.276;2023-11-22T06:24:31;23.02;;;19.17;;
13832;SDS011;6987;19.472;-99.276;2023-11-22T06:27:01;24.02;;;20.00;;
13832;SDS011;6987;19.472;-99.276;2023-11-22T06:29:31;21.10;;;17.63;;
13832;SDS011;6987;19.472;-99.276;2023-11-22T06:32:01;22.40;;;18.05;;
13832;SDS011;6987;19.472;-99.276;2023-11-22T06:34:32;23.55;;;19.40;;
13832;SDS011;6987;19.472;-99.276;2023-11-22T06:37:03;24.63;;;19.13;;
13832;SDS011;6987;19.472;-99.276;2023-11-22T06:39:34;20.42;;;17.88;;
13832;SDS011;6987;19.472;-99.276;2023-11-22T06:42:03;22.50;;;17.05;;
13832;SDS011;6987;19.472;-99.276;2023-11-22T06:44:33;21.42;;;17.38;;
13832;SDS011;6987;19.472;-99.276;2023-11-22T06:47:02;24.20;;;17.90;;
13832;SDS011;6987;19.472;-99.276;2023-11-22T06:49:32;20.63;;;17.92;;
13832;SDS011;6987;19.472;-99.276;2023-11-22T06:52:01;19.83;;;17.63;;
13832;SDS011;6987;19.472;-99.276;2023-11-22T06:54:32;20.60;;;17.15;;
13832;SDS011;6987;19.472;-99.276;2023-11-22T06:57:02;22.92;;;18.63;;
13832;SDS011;6987;19.472;-99.276;2023-11-22T06:59:31;22.52;;;18.60;;
13832;SDS011;6987;19.472;-99.276;2023-11-22T07:02:00;21.88;;;16.77;;
13832;SDS011;6987;19.472;-99.276;2023-11-22T07:04:30;18.67;;;16.73;;
13832;SDS011;6987;19.472;-99.276;2023-11-22T07:07:00;24.88;;;17.23;;
13832;SDS011;6987;19.472;-99.276;2023-11-22T07:09:31;18.85;;;16.15;;
13832;SDS011;6987;19.472;-99.276;2023-11-22T07:12:02;18.40;;;15.55;;
13832;SDS011;6987;19.472;-99.276;2023-11-22T07:14:33;23.83;;;16.45;;
13832;SDS011;6987;19.472;-99.276;2023-11-22T07:17:03;21.33;;;17.92;;
13832;SDS011;6987;19.472;-99.276;2023-11-22T07:19:33;21.65;;;17.92;;
13832;SDS011;6987;19.472;-99.276;2023-11-22T07:22:03;22.17;;;18.88;;
13832;SDS011;6987;19.472;-99.276;2023-11-22T07:24:43;23.45;;;18.08;;
13832;SDS011;6987;19.472;-99.276;2023-11-22T07:27:13;25.67;;;21.13;;
13832;SDS011;6987;19.472;-99.276;2023-11-22T07:29:42;26.23;;;20.25;;
13832;SDS011;6987;19.472;-99.276;2023-11-22T07:32:13;29.40;;;24.15;;
13832;SDS011;6987;19.472;-99.276;2023-11-22T07:34:42;34.30;;;26.00;;
13832;SDS011;6987;19.472;-99.276;2023-11-22T07:37:11;33.20;;;25.95;;
13832;SDS011;6987;19.472;-99.276;2023-11-22T07:39:41;31.52;;;26.92;;
13832;SDS011;6987;19.472;-99.276;2023-11-22T07:42:13;31.23;;;25.38;;
13832;SDS011;6987;19.472;-99.276;2023-11-22T07:44:42;36.00;;;26.55;;
13832;SDS011;6987;19.472;-99.276;2023-11-22T07:47:12;34.35;;;27.75;;
13832;SDS011;6987;19.472;-99.276;2023-11-22T07:49:41;38.58;;;29.80;;
13832;SDS011;6987;19.472;-99.276;2023-11-22T07:52:10;36.00;;;29.73;;
13832;SDS011;6987;19.472;-99.276;2023-11-22T07:54:40;35.72;;;29.90;;
13832;SDS011;6987;19.472;-99.276;2023-11-22T07:57:12;37.90;;;31.33;;
13832;SDS011;6987;19.472;-99.276;2023-11-22T07:59:41;34.85;;;29.48;;
13832;SDS011;6987;19.472;-99.276;2023-11-22T08:02:10;41.28;;;28.75;;
13832;SDS011;6987;19.472;-99.276;2023-11-22T08:04:40;35.25;;;27.98;;
13832;SDS011;6987;19.472;-99.276;2023-11-22T08:07:10;33.97;;;27.10;;
13832;SDS011;6987;19.472;-99.276;2023-11-22T08:09:41;28.77;;;25.05;;
13832;SDS011;6987;19.472;-99.276;2023-11-22T08:12:12;30.23;;;24.10;;
13832;SDS011;6987;19.472;-99.276;2023-11-22T08:14:41;31.95;;;24.25;;
13832;SDS011;6987;19.472;-99.276;2023-11-22T08:17:11;30.17;;;25.40;;
13832;SDS011;6987;19.472;-99.276;2023-11-22T08:19:40;29.80;;;25.70;;
13832;SDS011;6987;19.472;-99.276;2023-11-22T08:22:12;31.13;;;25.85;;
13832;SDS011;6987;19.472;-99.276;2023-11-22T08:24:41;34.13;;;25.63;;
13832;SDS011;6987;19.472;-99.276;2023-11-22T08:27:13;34.80;;;24.42;;
13832;SDS011;6987;19.472;-99.276;2023-11-22T08:29:42;33.30;;;25.35;;
13832;SDS011;6987;19.472;-99.276;2023-11-22T08:32:13;28.92;;;23.60;;
13832;SDS011;6987;19.472;-99.276;2023-11-22T08:34:43;29.08;;;24.55;;
13832;SDS011;6987;19.472;-99.276;2023-11-22T08:37:12;29.52;;;23.80;;
13832;SDS011;6987;19.472;-99.276;2023-11-22T08:39:42;33.10;;;24.73;;
13832;SDS011;6987;19.472;-99.276;2023-11-22T08:42:11;32.50;;;22.45;;
13832;SDS011;6987;19.472;-99.276;2023-11-22T08:44:42;25.25;;;21.70;;
13832;SDS011;6987;19.472;-99.276;2023-11-22T08:47:11;24.38;;;19.20;;
13832;SDS011;6987;19.472;-99.276;2023-11-22T08:49:40;22.42;;;19.77;;
13832;SDS011;6987;19.472;-99.276;2023-11-22T08:52:10;22.48;;;19.70;;
13832;SDS011;6987;19.472;-99.276;2023-11-22T08:54:39;25.33;;;20.27;;
13832;SDS011;6987;19.472;-99.276;2023-11-22T08:57:08;26.30;;;21.05;;
13832;SDS011;6987;19.472;-99.276;2023-11-22T08:59:39;26.70;;;20.58;;
13832;SDS011;6987;19.472;-99.276;2023-11-22T09:02:08;20.98;;;18.75;;
13832;SDS011;6987;19.472;-99.276;2023-11-22T09:04:38;22.10;;;17.13;;
13832;SDS011;6987;19.472;-99.276;2023-11-22T09:07:08;20.58;;;17.55;;
13832;SDS011;6987;19.472;-99.276;2023-11-22T09:09:40;21.42;;;17.80;;
13832;SDS011;6987;19.472;-99.276;2023-11-22T09:12:09;19.95;;;17.80;;
13832;SDS011;6987;19.472;-99.276;2023-11-22T09:14:41;31.88;;;18.15;;
13832;SDS011;6987;19.472;-99.276;2023-11-22T09:17:10;20.60;;;16.85;;
13832;SDS011;6987;19.472;-99.276;2023-11-22T09:19:40;22.45;;;17.98;;
13832;SDS011;6987;19.472;-99.276;2023-11-22T09:22:09;18.95;;;16.98;;
13832;SDS011;6987;19.472;-99.276;2023-11-22T09:24:39;18.55;;;16.58;;
13832;SDS011;6987;19.472;-99.276;2023-11-22T09:27:10;19.45;;;17.25;;
13832;SDS011;6987;19.472;-99.276;2023-11-22T09:29:45;19.00;;;17.00;;
13832;SDS011;6987;19.472;-99.276;2023-11-22T09:32:15;22.60;;;16.20;;
13832;SDS011;6987;19.472;-99.276;2023-11-22T09:34:45;19.55;;;16.40;;
13832;SDS011;6987;19.472;-99.276;2023-11-22T09:37:15;19.40;;;17.45;;
13832;SDS011;6987;19.472;-99.276;2023-11-22T09:39:45;24.83;;;20.20;;
13832;SDS011;6987;19.472;-99.276;2023-11-22T09:42:14;21.85;;;19.13;;
13832;SDS011;6987;19.472;-99.276;2023-11-22T09:44:45;23.15;;;18.52;;
13832;SDS011;6987;19.472;-99.276;2023-11-22T09:47:15;26.95;;;21.48;;
13832;SDS011;6987;19.472;-99.276;2023-11-22T09:49:45;31.90;;;22.95;;
13832;SDS011;6987;19.472;-99.276;2023-11-22T09:52:17;27.27;;;21.77;;
13832;SDS011;6987;19.472;-99.276;2023-11-22T09:54:50;27.17;;;21.40;;
13832;SDS011;6987;19.472;-99.276;2023-11-22T09:57:21;25.27;;;19.75;;
13832;SDS011;6987;19.472;-99.276;2023-11-22T09:59:54;23.13;;;19.02;;
13832;SDS011;6987;19.472;-99.276;2023-11-22T10:02:25;25.27;;;19.90;;
13832;SDS011;6987;19.472;-99.276;2023-11-22T10:04:56;23.23;;;19.38;;
13832;SDS011;6987;19.472;-99.276;2023-11-22T10:07:25;26.27;;;21.33;;
13832;SDS011;6987;19.472;-99.276;2023-11-22T10:09:54;30.70;;;22.90;;
13832;SDS011;6987;19.472;-99.276;2023-11-22T10:12:29;32.38;;;24.65;;
13832;SDS011;6987;19.472;-99.276;2023-11-22T10:15:13;30.15;;;23.88;;
13832;SDS011;6987;19.472;-99.276;2023-11-22T10:17:47;32.22;;;25.60;;
13832;SDS011;6987;19.472;-99.276;2023-11-22T10:20:23;34.78;;;25.73;;
13832;SDS011;6987;19.472;-99.276;2023-11-22T10:22:53;34.03;;;25.30;;
13832;SDS011;6987;19.472;-99.276;2023-11-22T10:25:22;32.13;;;25.42;;
13832;SDS011;6987;19.472;-99.276;2023-11-22T10:27:52;33.15;;;25.70;;
13832;SDS011;6987;19.472;-99.276;2023-11-22T10:30:26;41.35;;;26.77;;
13832;SDS011;6987;19.472;-99.276;2023-11-22T10:32:56;29.33;;;24.05;;
13832;SDS011;6987;19.472;-99.276;2023-11-22T10:35:26;36.33;;;27.80;;
13832;SDS011;6987;19.472;-99.276;2023-11-22T10:37:55;33.42;;;27.05;;
13832;SDS011;6987;19.472;-99.276;2023-11-22T10:40:24;31.50;;;26.23;;
13832;SDS011;6987;19.472;-99.276;2023-11-22T10:42:53;36.42;;;27.38;;
13832;SDS011;6987;19.472;-99.276;2023-11-22T10:45:26;34.40;;;27.73;;
13832;SDS011;6987;19.472;-99.276;2023-11-22T10:47:58;35.88;;;27.85;;
13832;SDS011;6987;19.472;-99.276;2023-11-22T10:50:29;37.13;;;26.60;;
13832;SDS011;6987;19.472;-99.276;2023-11-22T10:52:58;37.10;;;28.45;;
13832;SDS011;6987;19.472;-99.276;2023-11-22T10:55:32;37.05;;;30.55;;
13832;SDS011;6987;19.472;-99.276;2023-11-22T10:58:02;42.55;;;30.67;;
13832;SDS011;6987;19.472;-99.276;2023-11-22T11:00:34;39.05;;;29.65;;
13832;SDS011;6987;19.472;-99.276;2023-11-22T11:03:07;40.70;;;31.27;;
13832;SDS011;6987;19.472;-99.276;2023-11-22T11:05:41;42.72;;;32.53;;
13832;SDS011;6987;19.472;-99.276;2023-11-22T11:08:16;42.08;;;33.42;;
13832;SDS011;6987;19.472;-99.276;2023-11-22T11:10:46;36.08;;;30.63;;
13832;SDS011;6987;19.472;-99.276;2023-11-22T11:13:16;46.58;;;33.20;;
13832;SDS011;6987;19.472;-99.276;2023-11-22T11:15:48;40.45;;;30.65;;
13832;SDS011;6987;19.472;-99.276;2023-11-22T11:18:18;36.97;;;30.50;;
13832;SDS011;6987;19.472;-99.276;2023-11-22T11:20:49;36.13;;;30.73;;
13832;SDS011;6987;19.472;-99.276;2023-11-22T11:23:19;37.38;;;29.83;;
13832;SDS011;6987;19.472;-99.276;2023-11-22T11:25:50;37.70;;;29.67;;
13832;SDS011;6987;19.472;-99.276;2023-11-22T11:28:22;38.67;;;29.88;;
13832;SDS011;6987;19.472;-99.276;2023-11-22T11:30:54;36.70;;;29.20;;
13832;SDS011;6987;19.472;-99.276;2023-11-22T11:33:26;34.13;;;28.50;;
13832;SDS011;6987;19.472;-99.276;2023-11-22T11:36:01;34.95;;;28.42;;
13832;SDS011;6987;19.472;-99.276;2023-11-22T11:38:32;37.47;;;27.92;;
13832;SDS011;6987;19.472;-99.276;2023-11-22T11:41:06;34.47;;;28.73;;
13832;SDS011;6987;19.472;-99.276;2023-11-22T11:43:40;35.15;;;28.85;;
13832;SDS011;6987;19.472;-99.276;2023-11-22T11:46:13;34.25;;;28.65;;
13832;SDS011;6987;19.472;-99.276;2023-11-22T11:48:43;33.25;;;26.77;;
13832;SDS011;6987;19.472;-99.276;2023-11-22T11:51:16;34.05;;;28.27;;
13832;SDS011;6987;19.472;-99.276;2023-11-22T11:53:46;32.28;;;25.20;;
13832;SDS011;6987;19.472;-99.276;2023-11-22T11:56:16;34.35;;;27.83;;
13832;SDS011;6987;19.472;-99.276;2023-11-22T11:58:46;36.83;;;29.45;;
13832;SDS011;6987;19.472;-99.276;2023-11-22T12:01:18;40.58;;;30.50;;
13832;SDS011;6987;19.472;-99.276;2023-11-22T12:03:47;38.70;;;30.45;;
13832;SDS011;6987;19.472;-99.276;2023-11-22T12:06:17;43.35;;;31.42;;
13832;SDS011;6987;19.472;-99.276;2023-11-22T12:08:47;37.28;;;28.92;;
13832;SDS011;6987;19.472;-99.276;2023-11-22T12:11:16;36.30;;;27.42;;
13832;SDS011;6987;19.472;-99.276;2023-11-22T12:13:46;39.03;;;29.30;;
13832;SDS011;6987;19.472;-99.276;2023-11-22T12:16:18;35.28;;;28.98;;
13832;SDS011;6987;19.472;-99.276;2023-11-22T12:18:47;35.80;;;30.30;;
13832;SDS011;6987;19.472;-99.276;2023-11-22T12:21:18;42.05;;;30.83;;
13832;SDS011;6987;19.472;-99.276;2023-11-22T12:23:48;31.38;;;26.60;;
13832;SDS011;6987;19.472;-99.276;2023-11-22T12:26:19;37.33;;;26.88;;
13832;SDS011;6987;19.472;-99.276;2023-11-22T12:28:48;31.50;;;24.75;;
13832;SDS011;6987;19.472;-99.276;2023-11-22T12:31:20;31.88;;;25.00;;
13832;SDS011;6987;19.472;-99.276;2023-11-22T12:33:50;33.78;;;25.58;;
13832;SDS011;6987;19.472;-99.276;2023-11-22T12:36:19;32.90;;;24.52;;
13832;SDS011;6987;19.472;-99.276;2023-11-22T12:38:49;30.85;;;24.73;;
13832;SDS011;6987;19.472;-99.276;2023-11-22T12:41:18;34.40;;;25.35;;
13832;SDS011;6987;19.472;-99.276;2023-11-22T12:44:01;32.78;;;25.25;;
13832;SDS011;6987;19.472;-99.276;2023-11-22T12:49:22;31.25;;;24.27;;
13832;SDS011;6987;19.472;-99.276;2023-11-22T12:51:52;30.25;;;25.05;;
13832;SDS011;6987;19.472;-99.276;2023-11-22T12:54:22;30.00;;;23.80;;
13832;SDS011;6987;19.472;-99.276;2023-11-22T12:56:52;33.45;;;23.95;;
13832;SDS011;6987;19.472;-99.276;2023-11-22T12:59:24;29.25;;;23.73;;
13832;SDS011;6987;19.472;-99.276;2023-11-22T13:01:57;31.40;;;23.60;;
13832;SDS011;6987;19.472;-99.276;2023-11-22T13:04:28;29.23;;;22.90;;
13832;SDS011;6987;19.472;-99.276;2023-11-22T13:06:57;31.77;;;23.95;;
13832;SDS011;6987;19.472;-99.276;2023-11-22T13:09:27;31.45;;;24.17;;
13832;SDS011;6987;19.472;-99.276;2023-11-22T13:11:57;31.70;;;24.77;;
13832;SDS011;6987;19.472;-99.276;2023-11-22T13:14:27;35.65;;;26.33;;
13832;SDS011;6987;19.472;-99.276;2023-11-22T13:17:05;31.75;;;25.15;;
13832;SDS011;6987;19.472;-99.276;2023-11-22T13:19:36;30.67;;;23.95;;
13832;SDS011;6987;19.472;-99.276;2023-11-22T13:22:05;29.58;;;24.35;;
13832;SDS011;6987;19.472;-99.276;2023-11-22T13:24:35;35.78;;;27.10;;
13832;SDS011;6987;19.472;-99.276;2023-11-22T13:27:05;35.75;;;26.45;;
13832;SDS011;6987;19.472;-99.276;2023-11-22T13:29:37;31.23;;;26.15;;
13832;SDS011;6987;19.472;-99.276;2023-11-22T13:32:09;35.55;;;25.58;;
13832;SDS011;6987;19.472;-99.276;2023-11-22T13:34:38;37.08;;;26.70;;
13832;SDS011;6987;19.472;-99.276;2023-11-22T13:37:07;48.05;;;24.55;;
13832;SDS011;6987;19.472;-99.276;2023-11-22T13:39:36;34.90;;;26.38;;
13832;SDS011;6987;19.472;-99.276;2023-11-22T13:42:05;34.05;;;25.80;;
13832;SDS011;6987;19.472;-99.276;2023-11-22T13:44:34;32.70;;;25.38;;
13832;SDS011;6987;19.472;-99.276;2023-11-22T13:47:04;37.33;;;27.45;;
13832;SDS011;6987;19.472;-99.276;2023-11-22T13:49:35;35.47;;;25.55;;
13832;SDS011;6987;19.472;-99.276;2023-11-22T13:52:05;31.38;;;24.83;;
13832;SDS011;6987;19.472;-99.276;2023-11-22T13:54:34;37.65;;;24.70;;
13832;SDS011;6987;19.472;-99.276;2023-11-22T13:57:05;34.03;;;25.65;;
13832;SDS011;6987;19.472;-99.276;2023-11-22T13:59:34;31.13;;;25.30;;
13832;SDS011;6987;19.472;-99.276;2023-11-22T14:02:03;34.35;;;25.15;;
13832;SDS011;6987;19.472;-99.276;2023-11-22T14:04:32;34.42;;;25.73;;
13832;SDS011;6987;19.472;-99.276;2023-11-22T14:07:03;32.35;;;25.17;;
13832;SDS011;6987;19.472;-99.276;2023-11-22T14:09:32;34.53;;;25.30;;
13832;SDS011;6987;19.472;-99.276;2023-11-22T14:12:02;35.33;;;24.42;;
13832;SDS011;6987;19.472;-99.276;2023-11-22T14:14:31;33.88;;;24.70;;
13832;SDS011;6987;19.472;-99.276;2023-11-22T14:17:01;37.97;;;24.95;;
13832;SDS011;6987;19.472;-99.276;2023-11-22T14:19:31;34.95;;;23.63;;
13832;SDS011;6987;19.472;-99.276;2023-11-22T14:22:02;35.35;;;24.67;;
13832;SDS011;6987;19.472;-99.276;2023-11-22T14:24:33;31.50;;;23.48;;
13832;SDS011;6987;19.472;-99.276;2023-11-22T14:27:04;36.13;;;23.75;;
13832;SDS011;6987;19.472;-99.276;2023-11-22T14:29:33;34.33;;;23.25;;
13832;SDS011;6987;19.472;-99.276;2023-11-22T14:32:03;36.72;;;23.45;;